Donna Nook, United Kingdom
Current Conditions -  °F | °C
As of 12:50 PM on Friday 24 Oct 2014 (Local Time) from EGXS Reporting Station
Broken Clouds Broken Clouds  
Wind Chill: 61°   Ceiling: 2000
Heat Index: 61°   Visibility: 6mi
Dew Point: 55°   Wind: 15mph
Humidity: 82%   Direction: 220°SW
Pressure: 29.88"   Gusts: NA
Location:  53.47°N, 0.15°E
Report Text: EGXS 241150Z AUTO 22013KT 9999 // FEW015/// BKN020/// 16/13 Q1012
Loading
Personal Weather Stations






























Interactive Weather Map New forecast layout! Learn more

10-Day Weather Forecast

Advertisements
Track Severe Weather on mobile